Time;durP1;ratioP1;P1;durP2;ratioP2;P2;SDS_P1;SDS_P2;PMS_P1;PMS_P2;Temp;Humidity;BMP_temperature;BMP_pressure;BME280_temperature;BME280_humidity;BME280_pressure;Samples;Min_cycle;Max_cycle;Signal;HPM_P1;HPM_P2
2021/12/01 00:00:17;;;;;;;7.30;3.63;;;179.80;2252.80;;;;;;5036585;28;20049;-74
2021/12/01 00:02:43;;;;;;;6.18;3.42;;;179.90;2252.80;;;;;;5055031;28;20017;-73
2021/12/01 00:05:09;;;;;;;5.80;3.80;;;179.90;2252.80;;;;;;5054729;28;20020;-73
2021/12/01 00:07:36;;;;;;;5.32;2.70;;;179.90;2252.80;;;;;;5034980;28;20605;-73
2021/12/01 00:10:07;;;;;;;5.22;2.95;;;180.00;2252.80;;;;;;5048704;28;20148;-74
2021/12/01 00:12:33;;;;;;;5.50;3.28;;;179.90;2252.80;;;;;;5053959;28;20025;-74
2021/12/01 00:14:59;;;;;;;7.13;3.90;;;179.90;2252.80;;;;;;5039185;28;20029;-74
2021/12/01 00:17:25;;;;;;;6.47;3.50;;;180.00;2252.80;;;;;;5054341;28;20017;-74
2021/12/01 00:19:51;;;;;;;5.72;3.42;;;180.10;2252.80;;;;;;5036851;28;20029;-75
2021/12/01 00:22:17;;;;;;;5.13;2.97;;;204.80;2252.80;;;;;;5036397;28;20057;-74
2021/12/01 00:24:43;;;;;;;5.97;3.58;;;204.80;2252.80;;;;;;5053353;28;20059;-74
2021/12/01 00:27:09;;;;;;;6.28;3.35;;;204.90;2252.80;;;;;;5052582;28;20416;-74
2021/12/01 00:29:35;;;;;;;8.90;3.58;;;204.90;2252.80;;;;;;5029528;28;20035;-74
2021/12/01 00:32:00;;;;;;;5.85;3.97;;;204.90;2252.80;;;;;;5052586;28;20025;-74
2021/12/01 00:34:26;;;;;;;5.65;3.70;;;204.90;2252.80;;;;;;5036220;28;20048;-74
2021/12/01 00:36:52;;;;;;;5.57;3.13;;;205.00;2252.80;;;;;;5041760;28;20029;-74
2021/12/01 00:39:18;;;;;;;4.40;2.47;;;205.00;2252.80;;;;;;5028382;28;20496;-74
2021/12/01 00:41:43;;;;;;;6.00;2.72;;;205.00;2252.80;;;;;;5053831;28;20040;-74
2021/12/01 00:44:10;;;;;;;5.38;2.85;;;205.10;2252.80;;;;;;5053777;28;20029;-74
2021/12/01 00:46:40;;;;;;;5.85;3.33;;;205.10;2252.80;;;;;;5054000;28;20017;-74
2021/12/01 00:49:06;;;;;;;4.78;2.75;;;205.20;2252.80;;;;;;5053471;28;20036;-74
2021/12/01 00:51:32;;;;;;;3.92;2.70;;;205.20;2252.80;;;;;;5054129;28;20029;-73
2021/12/01 00:53:58;;;;;;;5.03;2.40;;;205.20;2252.80;;;;;;5035689;28;20053;-73
2021/12/01 00:56:24;;;;;;;5.82;2.72;;;205.20;2252.80;;;;;;5036108;28;20022;-73
2021/12/01 00:58:51;;;;;;;4.55;2.80;;;205.20;2252.80;;;;;;5022964;28;20495;-73
2021/12/01 01:01:17;;;;;;;7.88;2.88;;;205.20;2252.80;;;;;;5053573;28;20009;-74
2021/12/01 01:03:43;;;;;;;5.97;2.95;;;205.10;2252.80;;;;;;5052706;28;20496;-74
2021/12/01 01:06:09;;;;;;;5.80;3.75;;;205.10;2252.80;;;;;;5035510;28;20029;-73
2021/12/01 01:08:34;;;;;;;8.27;3.08;;;205.10;2252.80;;;;;;5053813;28;20021;-73
2021/12/01 01:16:23;;;;;;;8.27;4.00;;;205.10;2252.80;;;;;;5033526;28;20064;-73
2021/12/01 01:19:10;;;;;;;5.57;3.90;;;205.00;2252.80;;;;;;5015713;28;20476;-73
2021/12/01 01:21:41;;;;;;;4.10;2.78;;;205.00;2252.80;;;;;;5033443;28;20028;-74
2021/12/01 01:24:07;;;;;;;6.25;3.08;;;205.00;2252.80;;;;;;5033625;28;20116;-74
2021/12/01 01:26:35;;;;;;;5.68;3.78;;;205.00;2252.80;;;;;;5048284;28;20125;-74
2021/12/01 01:29:01;;;;;;;6.78;3.83;;;205.00;2252.80;;;;;;5052981;28;20032;-74
2021/12/01 01:31:27;;;;;;;7.43;3.85;;;205.10;2252.80;;;;;;5051505;28;20025;-74
2021/12/01 01:33:53;;;;;;;5.28;3.50;;;205.10;2252.80;;;;;;5047800;28;20028;-74
2021/12/01 01:36:19;;;;;;;5.88;2.67;;;205.00;2252.80;;;;;;5034656;28;20041;-74
2021/12/01 01:38:46;;;;;;;5.95;2.97;;;205.00;2252.80;;;;;;5035153;28;20124;-74
2021/12/01 01:41:13;;;;;;;8.40;3.90;;;205.00;2252.80;;;;;;5052547;28;20036;-74
2021/12/01 01:43:44;;;;;;;5.55;3.47;;;205.00;2252.80;;;;;;5053278;28;20391;-75
2021/12/01 01:46:11;;;;;;;7.75;3.38;;;205.00;2252.80;;;;;;5051980;28;20052;-74
2021/12/01 01:48:53;;;;;;;7.60;3.03;;;204.90;2252.80;;;;;;5052696;28;20023;-74
2021/12/01 01:51:23;;;;;;;5.90;3.70;;;204.90;2252.80;;;;;;5051727;28;20029;-74
2021/12/01 01:53:51;;;;;;;7.63;3.83;;;204.90;2252.80;;;;;;5052279;28;20045;-74
2021/12/01 01:56:17;;;;;;;7.88;3.55;;;204.90;2252.80;;;;;;5034480;28;20025;-74
2021/12/01 01:58:43;;;;;;;6.18;3.65;;;204.90;2252.80;;;;;;5043444;28;20396;-74
2021/12/01 02:01:21;;;;;;;5.18;3.00;;;204.90;2252.80;;;;;;5014780;28;20104;-74
2021/12/01 02:03:48;;;;;;;13.05;3.60;;;204.90;2252.80;;;;;;5032644;28;20018;-74
2021/12/01 02:06:22;;;;;;;6.15;3.63;;;204.80;2252.80;;;;;;5041608;28;20021;-74
2021/12/01 02:08:48;;;;;;;7.05;3.72;;;204.80;2252.80;;;;;;5033804;28;20021;-74
2021/12/01 02:11:15;;;;;;;8.82;4.20;;;204.80;2252.80;;;;;;5051604;28;20028;-75
2021/12/01 02:13:41;;;;;;;7.22;3.13;;;204.80;2252.80;;;;;;5032063;28;20021;-74
2021/12/01 02:16:08;;;;;;;7.00;3.97;;;204.80;2252.80;;;;;;5031203;28;20534;-75
2021/12/01 02:18:34;;;;;;;4.70;2.90;;;204.80;2252.80;;;;;;5033878;28;20114;-75
2021/12/01 02:21:11;;;;;;;6.38;3.45;;;180.10;2252.80;;;;;;5052188;28;20052;-75
2021/12/01 02:23:39;;;;;;;7.25;4.18;;;180.10;2252.80;;;;;;5042873;28;20025;-76
2021/12/01 02:26:06;;;;;;;5.18;3.17;;;180.00;2252.80;;;;;;5052326;28;20100;-75
2021/12/01 02:28:32;;;;;;;5.82;3.67;;;180.00;2252.80;;;;;;5033183;28;20262;-75
2021/12/01 02:30:59;;;;;;;4.53;2.80;;;179.90;2252.80;;;;;;5051013;28;20032;-75
2021/12/01 02:33:25;;;;;;;5.57;3.35;;;179.80;2252.80;;;;;;5031977;28;20021;-75
2021/12/01 02:35:51;;;;;;;7.88;3.05;;;179.80;2252.80;;;;;;5051492;28;20024;-74
2021/12/01 02:38:18;;;;;;;5.38;3.10;;;179.80;2252.80;;;;;;5051968;28;20025;-74
2021/12/01 02:40:45;;;;;;;7.95;4.00;;;179.80;2252.80;;;;;;5033780;28;20464;-74
2021/12/01 02:43:11;;;;;;;7.72;4.07;;;179.80;2252.80;;;;;;5049152;28;20075;-74
2021/12/01 02:45:39;;;;;;;5.97;3.45;;;179.70;2252.80;;;;;;5033555;28;20064;-75
2021/12/01 02:48:04;;;;;;;8.45;3.83;;;179.70;2252.80;;;;;;5034033;28;20029;-75
2021/12/01 02:50:30;;;;;;;5.50;3.00;;;179.70;2252.80;;;;;;5032689;28;20037;-75
2021/12/01 02:52:56;;;;;;;7.32;4.68;;;179.70;2252.80;;;;;;5033824;28;20111;-75
2021/12/01 02:55:24;;;;;;;4.75;2.90;;;179.70;2252.80;;;;;;5033402;28;20072;-75
2021/12/01 02:57:53;;;;;;;5.03;3.35;;;179.70;2252.80;;;;;;5051383;28;20035;-74
2021/12/01 03:00:21;;;;;;;6.93;3.10;;;179.70;2252.80;;;;;;5049397;28;20436;-74
2021/12/01 03:02:47;;;;;;;7.93;3.42;;;179.70;2252.80;;;;;;5033491;28;20465;-74
2021/12/01 03:05:16;;;;;;;5.72;3.72;;;179.70;2252.80;;;;;;5034016;28;20040;-74
2021/12/01 03:07:43;;;;;;;7.32;4.47;;;179.60;2252.80;;;;;;5033776;28;20029;-74
2021/12/01 03:10:09;;;;;;;9.88;3.40;;;179.60;2252.80;;;;;;5051883;28;20029;-75
2021/12/01 03:12:38;;;;;;;5.18;3.58;;;179.60;2252.80;;;;;;5044713;28;20029;-74
2021/12/01 03:15:06;;;;;;;4.78;3.08;;;179.70;2252.80;;;;;;5032500;28;20464;-74
2021/12/01 03:17:33;;;;;;;5.03;3.47;;;179.70;2252.80;;;;;;5031229;28;20033;-74
2021/12/01 03:19:59;;;;;;;6.43;3.30;;;179.70;2252.80;;;;;;5033841;28;20021;-74
2021/12/01 03:22:26;;;;;;;5.35;3.00;;;179.70;2252.80;;;;;;5018292;28;20476;-75
2021/12/01 03:24:52;;;;;;;7.07;3.80;;;179.70;2252.80;;;;;;5035548;28;20038;-74
2021/12/01 03:27:18;;;;;;;6.05;3.28;;;179.70;2252.80;;;;;;5035882;28;20032;-75
2021/12/01 03:29:49;;;;;;;6.65;2.88;;;179.70;2252.80;;;;;;5035214;28;20032;-74
2021/12/01 03:32:15;;;;;;;6.10;3.40;;;179.70;2252.80;;;;;;5017765;28;20495;-74
2021/12/01 03:34:43;;;;;;;8.95;3.30;;;179.70;2252.80;;;;;;5017639;28;20033;-74
2021/12/01 03:37:10;;;;;;;7.25;3.20;;;179.70;2252.80;;;;;;5017047;28;20029;-74
2021/12/01 03:39:36;;;;;;;5.03;3.13;;;179.80;2252.80;;;;;;5017308;28;20392;-74
2021/12/01 03:42:03;;;;;;;5.30;2.50;;;179.80;2252.80;;;;;;5035351;28;20029;-74
2021/12/01 03:44:29;;;;;;;5.47;3.10;;;179.90;2252.80;;;;;;5017843;28;20022;-74
2021/12/01 03:46:54;;;;;;;4.45;3.28;;;179.90;2252.80;;;;;;5028848;28;20090;-74
2021/12/01 03:49:20;;;;;;;7.90;4.05;;;179.90;2252.80;;;;;;5037536;28;20040;-74
2021/12/01 03:51:46;;;;;;;4.30;3.50;;;179.90;2252.80;;;;;;5054797;28;20387;-75
2021/12/01 03:54:12;;;;;;;9.15;4.18;;;180.00;2252.80;;;;;;5037460;28;20037;-74
2021/12/01 03:56:38;;;;;;;7.40;4.40;;;180.00;2252.80;;;;;;5053546;28;20063;-75
2021/12/01 03:59:05;;;;;;;10.60;6.07;;;180.00;2252.80;;;;;;5055122;28;20464;-74
2021/12/01 04:01:32;;;;;;;7.20;3.30;;;180.10;2252.80;;;;;;5053737;28;20105;-74
2021/12/01 04:03:58;;;;;;;9.27;4.82;;;180.00;2252.80;;;;;;5039546;28;20044;-74
2021/12/01 04:06:25;;;;;;;8.60;4.95;;;180.00;2252.80;;;;;;5036498;28;20758;-74
2021/12/01 04:08:51;;;;;;;9.25;3.67;;;180.00;2252.80;;;;;;5036785;28;20849;-75
2021/12/01 04:11:17;;;;;;;11.35;3.83;;;180.00;2252.80;;;;;;5055006;28;20155;-74
2021/12/01 04:13:43;;;;;;;8.57;4.90;;;179.90;2252.80;;;;;;5036650;28;20408;-74
2021/12/01 04:16:09;;;;;;;12.13;6.68;;;179.90;2252.80;;;;;;5034372;28;20040;-74
2021/12/01 04:18:35;;;;;;;8.18;4.75;;;179.90;2252.80;;;;;;5016538;28;20025;-74
2021/12/01 04:21:00;;;;;;;8.18;5.07;;;179.80;2252.80;;;;;;5017102;28;20117;-75
2021/12/01 04:23:26;;;;;;;11.52;5.10;;;179.80;2252.80;;;;;;5034486;28;20048;-74
2021/12/01 04:25:52;;;;;;;10.10;5.45;;;179.80;2252.80;;;;;;5034669;28;20026;-75
2021/12/01 04:28:18;;;;;;;12.45;7.45;;;179.70;2252.80;;;;;;5034530;28;20076;-76
2021/12/01 04:30:44;;;;;;;9.32;5.65;;;179.70;2252.80;;;;;;5022010;28;20028;-75
2021/12/01 04:33:10;;;;;;;15.25;9.25;;;179.70;2252.80;;;;;;5054154;28;20511;-75
2021/12/01 04:35:36;;;;;;;11.40;6.30;;;179.70;2252.80;;;;;;5050525;28;20471;-75
2021/12/01 04:38:03;;;;;;;11.63;6.72;;;179.70;2252.80;;;;;;5034582;28;20078;-76
2021/12/01 04:40:29;;;;;;;8.07;5.20;;;179.70;2252.80;;;;;;5035395;28;20115;-75
2021/12/01 04:42:55;;;;;;;28.60;14.43;;;179.70;2252.80;;;;;;5054017;28;20096;-76
2021/12/01 04:45:22;;;;;;;28.10;11.55;;;179.70;2252.80;;;;;;5052071;28;20024;-75
2021/12/01 04:47:51;;;;;;;18.80;9.68;;;179.70;2252.80;;;;;;5036062;28;20451;-75
2021/12/01 04:50:19;;;;;;;21.85;8.65;;;179.70;2252.80;;;;;;5050804;28;20075;-76
2021/12/01 04:52:46;;;;;;;16.35;8.00;;;179.70;2252.80;;;;;;5041787;28;20089;-75
2021/12/01 04:55:12;;;;;;;8.95;4.47;;;179.70;2252.80;;;;;;5023923;28;20081;-75
2021/12/01 04:57:39;;;;;;;15.15;7.03;;;179.80;2252.80;;;;;;5033554;28;20059;-75
2021/12/01 05:00:07;;;;;;;10.88;5.65;;;179.80;2252.80;;;;;;5033594;28;20104;-75
2021/12/01 05:02:33;;;;;;;15.30;8.10;;;179.80;2252.80;;;;;;5028139;28;20025;-75
2021/12/01 05:04:58;;;;;;;19.48;10.13;;;179.80;2252.80;;;;;;5033662;28;20026;-75
2021/12/01 05:07:25;;;;;;;15.52;7.53;;;179.80;2252.80;;;;;;5013442;28;20017;-76
2021/12/01 05:09:51;;;;;;;19.50;9.52;;;179.80;2252.80;;;;;;5013559;28;20228;-76
2021/12/01 05:12:17;;;;;;;13.20;7.10;;;179.80;2252.80;;;;;;5015532;28;20138;-75
2021/12/01 05:14:43;;;;;;;11.38;6.18;;;179.80;2252.80;;;;;;5030006;28;20028;-75
2021/12/01 05:17:08;;;;;;;13.07;7.47;;;179.80;2252.80;;;;;;5031141;28;20493;-76
2021/12/01 05:19:35;;;;;;;9.90;6.40;;;179.80;2252.80;;;;;;5011772;28;20057;-75
2021/12/01 05:22:02;;;;;;;21.17;10.15;;;179.80;2252.80;;;;;;5009072;28;20045;-75
2021/12/01 05:24:28;;;;;;;32.50;14.88;;;179.80;2252.80;;;;;;5011629;28;20053;-75
2021/12/01 05:26:54;;;;;;;40.47;21.00;;;179.80;2252.80;;;;;;5015762;28;20534;-75
2021/12/01 05:29:21;;;;;;;51.05;24.00;;;179.80;2252.80;;;;;;5030957;28;20064;-75
2021/12/01 05:31:48;;;;;;;42.38;19.83;;;179.70;2252.80;;;;;;5027152;28;20026;-75
2021/12/01 05:34:14;;;;;;;44.90;25.05;;;179.70;2252.80;;;;;;5015315;28;20075;-75
2021/12/01 05:36:40;;;;;;;32.20;16.77;;;179.70;2252.80;;;;;;5033360;28;20025;-75
2021/12/01 05:39:05;;;;;;;19.70;9.95;;;179.80;2252.80;;;;;;5024366;28;20533;-75
2021/12/01 05:41:31;;;;;;;13.82;7.60;;;179.70;2252.80;;;;;;5014310;28;20030;-75
2021/12/01 05:43:57;;;;;;;13.60;8.02;;;179.80;2252.80;;;;;;5031870;28;20033;-75
2021/12/01 05:46:23;;;;;;;9.38;5.80;;;179.80;2252.80;;;;;;5032096;28;20029;-74
2021/12/01 05:48:51;;;;;;;16.35;6.70;;;179.80;2252.80;;;;;;5033108;28;20028;-75
2021/12/01 05:51:19;;;;;;;9.35;5.68;;;179.80;2252.80;;;;;;5014904;28;20124;-74
2021/12/01 05:53:45;;;;;;;11.90;6.60;;;179.90;2252.80;;;;;;5050340;28;20052;-75
2021/12/01 05:56:11;;;;;;;11.95;6.18;;;179.90;2252.80;;;;;;5054410;28;20111;-75
2021/12/01 05:58:36;;;;;;;9.82;4.80;;;179.90;2252.80;;;;;;5073074;28;20477;-75
2021/12/01 06:01:02;;;;;;;7.90;4.63;;;179.90;2252.80;;;;;;5072391;28;20028;-75
2021/12/01 06:03:28;;;;;;;12.60;5.75;;;179.90;2252.80;;;;;;5043455;28;20028;-75
2021/12/01 06:05:54;;;;;;;9.38;6.63;;;179.90;2252.80;;;;;;5064394;28;20153;-74
2021/12/01 06:08:20;;;;;;;10.55;6.63;;;179.90;2252.80;;;;;;5072055;28;20063;-75
2021/12/01 06:10:46;;;;;;;10.88;6.18;;;179.90;2252.80;;;;;;5072770;28;20070;-75
2021/12/01 06:13:18;;;;;;;9.77;6.35;;;179.90;2252.80;;;;;;5054273;28;20048;-75
2021/12/01 06:15:44;;;;;;;11.82;6.78;;;179.90;2252.80;;;;;;5054218;28;20483;-75
2021/12/01 06:18:11;;;;;;;17.02;7.57;;;179.90;2252.80;;;;;;5071820;28;20495;-74
2021/12/01 06:20:38;;;;;;;17.55;7.15;;;180.00;2252.80;;;;;;5072338;28;20029;-75
2021/12/01 06:23:04;;;;;;;18.73;9.52;;;180.00;2252.80;;;;;;5069935;28;20044;-74
2021/12/01 06:25:30;;;;;;;19.08;9.95;;;180.00;2252.80;;;;;;5054081;28;20025;-73
2021/12/01 06:27:56;;;;;;;23.35;13.18;;;180.00;2252.80;;;;;;5053419;28;20028;-74
2021/12/01 06:30:25;;;;;;;21.50;10.05;;;180.00;2252.80;;;;;;5065247;28;20032;-75
2021/12/01 06:32:51;;;;;;;19.40;9.27;;;180.00;2252.80;;;;;;5071932;28;20032;-75
2021/12/01 06:35:18;;;;;;;15.73;7.68;;;179.90;2252.80;;;;;;5053557;28;20123;-74
2021/12/01 06:37:45;;;;;;;13.70;8.57;;;179.90;2252.80;;;;;;5071422;28;20420;-74
2021/12/01 06:40:12;;;;;;;13.85;8.30;;;180.00;2252.80;;;;;;5068917;28;20029;-74
2021/12/01 06:42:38;;;;;;;15.93;8.80;;;180.00;2252.80;;;;;;5072182;28;20020;-74
2021/12/01 06:45:06;;;;;;;17.73;8.63;;;180.10;2252.80;;;;;;5070926;28;20028;-74
2021/12/01 06:47:31;;;;;;;17.45;10.00;;;204.80;2252.80;;;;;;5071810;28;20033;-74
2021/12/01 06:49:59;;;;;;;13.23;7.80;;;204.90;2252.80;;;;;;5053419;28;20030;-74
2021/12/01 06:52:28;;;;;;;16.30;6.28;;;204.90;2252.80;;;;;;5071417;28;20052;-74
2021/12/01 06:54:57;;;;;;;11.80;6.60;;;204.90;2252.80;;;;;;5071387;28;20086;-74
2021/12/01 06:57:24;;;;;;;8.50;6.32;;;204.90;2252.80;;;;;;5071020;28;20021;-74
2021/12/01 06:59:50;;;;;;;14.30;6.65;;;204.90;2252.80;;;;;;5071509;28;20020;-74
2021/12/01 07:02:17;;;;;;;14.32;9.68;;;205.00;2252.80;;;;;;5071342;28;20108;-74
2021/12/01 07:04:44;;;;;;;26.83;7.35;;;205.00;2252.80;;;;;;5053674;28;20419;-76
2021/12/01 07:07:10;;;;;;;9.98;5.65;;;205.10;2252.80;;;;;;5070038;28;20027;-74
2021/12/01 07:09:36;;;;;;;11.77;6.38;;;205.20;2252.80;;;;;;5067155;28;20463;-74
2021/12/01 07:12:02;;;;;;;13.55;6.95;;;205.20;2252.80;;;;;;5069325;28;20574;-74
2021/12/01 07:14:28;;;;;;;12.40;6.18;;;205.20;2252.80;;;;;;5052776;28;20028;-75
2021/12/01 07:16:55;;;;;;;9.07;6.30;;;205.30;2252.80;;;;;;5051344;28;20607;-75
2021/12/01 07:19:21;;;;;;;19.65;10.82;;;205.40;2252.80;;;;;;5052565;28;20555;-74
2021/12/01 07:21:47;;;;;;;15.45;8.60;;;205.50;2252.80;;;;;;5070303;28;20020;-75
2021/12/01 07:24:13;;;;;;;12.55;8.20;;;205.50;2252.80;;;;;;5068456;28;20021;-75
2021/12/01 07:26:39;;;;;;;14.75;7.15;;;205.60;2252.80;;;;;;5052815;28;20087;-75
2021/12/01 07:29:05;;;;;;;14.77;8.45;;;205.60;2252.80;;;;;;5052341;28;21528;-74
2021/12/01 07:31:31;;;;;;;13.70;7.20;;;205.70;2252.80;;;;;;5070430;28;20069;-75
2021/12/01 07:33:57;;;;;;;21.85;9.10;;;230.40;2252.80;;;;;;5050925;28;20676;-75
2021/12/01 07:36:22;;;;;;;16.02;8.85;;;230.40;2252.80;;;;;;5070228;28;20025;-74
2021/12/01 07:38:50;;;;;;;12.68;7.28;;;230.50;2252.80;;;;;;5070133;28;20025;-75
2021/12/01 07:41:17;;;;;;;18.20;8.23;;;230.60;2252.80;;;;;;5051968;28;20020;-75
2021/12/01 07:43:43;;;;;;;16.92;7.18;;;230.60;2252.80;;;;;;5052477;28;20120;-75
2021/12/01 07:46:09;;;;;;;14.73;7.07;;;230.60;2252.80;;;;;;5070245;28;20523;-76
2021/12/01 07:48:36;;;;;;;10.07;6.57;;;230.70;2252.80;;;;;;5068727;28;20112;-75
2021/12/01 07:51:02;;;;;;;13.48;6.50;;;230.80;2252.80;;;;;;5069490;28;20037;-75
2021/12/01 07:53:28;;;;;;;13.63;7.65;;;230.90;2252.80;;;;;;5069130;28;20067;-75
2021/12/01 07:55:54;;;;;;;17.73;10.93;;;230.90;2252.80;;;;;;5050400;28;20029;-75
2021/12/01 07:58:20;;;;;;;21.65;10.88;;;231.00;2252.80;;;;;;5067989;28;20108;-76
2021/12/01 08:00:46;;;;;;;27.38;14.30;;;231.10;2252.80;;;;;;5062073;28;20380;-77
2021/12/01 08:03:11;;;;;;;14.75;9.38;;;231.10;2252.80;;;;;;5053254;28;20016;-77
2021/12/01 08:05:37;;;;;;;22.13;11.73;;;231.10;2252.80;;;;;;5053137;28;20027;-77
2021/12/01 08:08:05;;;;;;;19.75;13.55;;;231.20;2252.80;;;;;;5055708;28;20025;-78
2021/12/01 08:10:31;;;;;;;14.23;8.82;;;231.20;2252.80;;;;;;5052701;28;20554;-78
2021/12/01 08:13:00;;;;;;;31.85;17.88;;;231.10;2252.80;;;;;;5072087;28;20116;-78
2021/12/01 08:15:26;;;;;;;31.13;18.05;;;231.30;2252.80;;;;;;5074372;28;20024;-77
2021/12/01 08:17:52;;;;;;;30.02;17.08;;;256.00;2252.80;;;;;;5055542;28;20025;-77
2021/12/01 08:20:19;;;;;;;22.67;13.25;;;256.00;2252.80;;;;;;5074449;28;20017;-78
2021/12/01 08:22:44;;;;;;;24.30;13.57;;;256.10;2252.80;;;;;;5068667;28;20077;-78
2021/12/01 08:25:10;;;;;;;20.27;11.23;;;256.20;2252.80;;;;;;5055554;28;20033;-78
2021/12/01 08:27:36;;;;;;;32.92;19.33;;;256.40;2252.80;;;;;;5056226;28;20077;-78
2021/12/01 08:30:03;;;;;;;23.15;13.40;;;256.40;2252.80;;;;;;5074285;28;20479;-77
2021/12/01 08:32:28;;;;;;;16.50;10.55;;;256.50;2252.80;;;;;;5056144;28;20494;-78
2021/12/01 08:34:54;;;;;;;15.27;9.50;;;256.40;2252.80;;;;;;5055881;28;20028;-79
2021/12/01 08:37:20;;;;;;;17.42;9.52;;;256.50;2252.80;;;;;;5074212;28;20112;-78
2021/12/01 08:39:48;;;;;;;13.60;8.77;;;256.50;2252.80;;;;;;5055052;28;20129;-77
2021/12/01 08:42:15;;;;;;;20.20;11.43;;;256.60;2252.80;;;;;;5074067;28;20379;-76
2021/12/01 08:44:45;;;;;;;43.13;19.77;;;256.50;2252.80;;;;;;5071651;28;20021;-77
2021/12/01 08:47:12;;;;;;;25.05;14.15;;;256.50;2252.80;;;;;;5054086;28;20745;-78
2021/12/01 08:49:38;;;;;;;16.17;7.68;;;256.40;2252.80;;;;;;5055065;28;20364;-77
2021/12/01 08:52:04;;;;;;;14.40;6.35;;;256.50;2252.80;;;;;;5063774;28;20052;-77
2021/12/01 08:54:30;;;;;;;12.60;5.63;;;256.50;2252.80;;;;;;5055295;28;20033;-78
2021/12/01 08:56:57;;;;;;;12.10;6.38;;;256.50;2252.80;;;;;;5052410;28;20438;-78
2021/12/01 08:59:23;;;;;;;9.88;5.70;;;256.60;2252.80;;;;;;5050524;28;20078;-78
2021/12/01 09:01:49;;;;;;;10.90;6.93;;;256.80;2252.80;;;;;;5053823;28;20553;-78
2021/12/01 09:04:15;;;;;;;14.98;8.25;;;256.90;2252.80;;;;;;5073828;28;20028;-78
2021/12/01 09:06:41;;;;;;;10.02;6.35;;;256.90;2252.80;;;;;;5047326;28;20463;-78
2021/12/01 09:09:07;;;;;;;12.70;7.55;;;256.90;2252.80;;;;;;5069319;28;20028;-78
2021/12/01 09:11:33;;;;;;;16.25;7.53;;;281.60;2278.40;;;;;;5067123;28;20034;-79
2021/12/01 09:13:59;;;;;;;17.80;9.77;;;281.70;2278.40;;;;;;5070728;28;20372;-79
2021/12/01 09:16:25;;;;;;;15.57;9.35;;;281.80;2278.40;;;;;;5069376;28;20033;-78
2021/12/01 09:18:51;;;;;;;15.43;9.00;;;282.10;2278.40;;;;;;5069663;28;20537;-79
2021/12/01 09:21:18;;;;;;;25.60;9.65;;;282.10;2278.40;;;;;;5071198;28;20024;-78
2021/12/01 09:23:45;;;;;;;15.50;10.15;;;282.10;2278.40;;;;;;5070117;28;20028;-78
2021/12/01 09:26:10;;;;;;;16.13;9.40;;;282.30;2278.40;;;;;;5058908;28;20030;-78
2021/12/01 09:28:36;;;;;;;15.70;9.30;;;282.40;2278.40;;;;;;5048460;28;20025;-79
2021/12/01 09:31:02;;;;;;;18.80;9.45;;;307.20;2304.00;;;;;;5072942;28;20032;-78
2021/12/01 09:33:29;;;;;;;22.33;12.80;;;307.30;2304.00;;;;;;5071930;28;20021;-77
2021/12/01 09:39:17;;;;;;;19.42;10.77;;;307.80;2304.00;;;;;;5070478;28;20074;-78
2021/12/01 09:41:44;;;;;;;34.30;18.70;;;307.80;2304.00;;;;;;5053719;28;20403;-80
2021/12/01 09:44:10;;;;;;;21.88;12.63;;;332.80;2329.60;;;;;;5072217;28;20035;-81
2021/12/01 09:46:36;;;;;;;20.58;10.50;;;333.00;2329.60;;;;;;5053722;28;20025;-81
2021/12/01 09:49:02;;;;;;;15.73;8.82;;;333.20;2329.60;;;;;;5072381;28;20028;-81
2021/12/01 09:51:28;;;;;;;37.30;21.45;;;333.00;2329.60;;;;;;5072535;28;20021;-80
2021/12/01 09:53:55;;;;;;;28.23;13.40;;;308.10;2304.00;;;;;;5069471;28;20384;-80
2021/12/01 09:56:21;;;;;;;22.88;14.55;;;308.10;2304.00;;;;;;5054815;28;20020;-80
2021/12/01 09:58:47;;;;;;;18.35;10.68;;;308.10;2304.00;;;;;;5054211;28;20502;-80
2021/12/01 10:01:16;;;;;;;16.20;8.65;;;308.10;2304.00;;;;;;5072527;28;20028;-82
2021/12/01 10:07:13;;;;;;;21.25;10.95;;;308.10;2304.00;;;;;;5071613;28;20525;-80
2021/12/01 10:09:45;;;;;;;18.30;11.68;;;332.80;2329.60;;;;;;5054303;28;20064;-80
2021/12/01 10:12:11;;;;;;;22.00;11.77;;;332.80;2329.60;;;;;;5052036;28;20071;-80
2021/12/01 10:14:37;;;;;;;22.33;12.48;;;332.80;2329.60;;;;;;5069919;28;20024;-80
2021/12/01 10:17:03;;;;;;;21.05;9.80;;;308.10;2304.00;;;;;;5053197;28;20116;-80
2021/12/01 10:19:29;;;;;;;19.15;9.93;;;332.80;2329.60;;;;;;5053470;28;20033;-79
2021/12/01 10:21:55;;;;;;;16.38;7.63;;;308.10;2304.00;;;;;;5070177;28;20086;-80
2021/12/01 10:24:23;;;;;;;23.67;12.40;;;308.00;2304.00;;;;;;5052783;28;20820;-80
2021/12/01 10:27:11;;;;;;;24.52;11.02;;;308.00;2304.00;;;;;;5048714;28;20028;-80
2021/12/01 10:29:48;;;;;;;25.20;9.13;;;308.10;2304.00;;;;;;5052781;28;20060;-80
2021/12/01 10:32:42;;;;;;;18.10;9.85;;;308.10;2304.00;;;;;;5068548;28;20016;-80
2021/12/01 10:35:11;;;;;;;15.57;7.43;;;332.90;2329.60;;;;;;5050606;28;20475;-80
2021/12/01 10:37:37;;;;;;;12.30;6.82;;;332.90;2329.60;;;;;;5065712;28;20114;-80
2021/12/01 10:40:09;;;;;;;16.73;7.32;;;333.00;2329.60;;;;;;5069192;28;20029;-80
2021/12/01 10:43:02;;;;;;;11.48;6.38;;;333.20;2329.60;;;;;;5053457;28;20027;-80
2021/12/01 10:45:32;;;;;;;11.65;6.10;;;333.40;2329.60;;;;;;5064369;28;20468;-80
2021/12/01 10:47:59;;;;;;;12.05;5.72;;;333.70;2329.60;;;;;;5050972;28;20035;-81
2021/12/01 10:50:27;;;;;;;11.98;6.10;;;358.50;2329.60;;;;;;5050613;28;20398;-81
2021/12/01 10:53:05;;;;;;;15.23;7.30;;;359.00;2329.60;;;;;;5052976;28;20099;-80
2021/12/01 10:55:32;;;;;;;16.92;10.82;;;384.20;2252.80;;;;;;5069663;28;20115;-81
2021/12/01 10:58:23;;;;;;;20.08;10.27;;;384.60;2124.80;;;;;;5052776;28;20029;-81
2021/12/01 11:00:54;;;;;;;11.43;5.95;;;409.80;2022.40;;;;;;5068710;28;20027;-81
2021/12/01 11:06:27;;;;;;;14.35;6.60;;;384.80;2022.40;;;;;;5069646;28;20078;-81
2021/12/01 11:08:58;;;;;;;8.02;5.15;;;409.80;2022.40;;;;;;5053884;28;20021;-82
2021/12/01 11:11:45;;;;;;;14.95;8.25;;;409.70;2022.40;;;;;;5051080;28;20104;-81
2021/12/01 11:14:22;;;;;;;13.35;6.35;;;409.80;2048.00;;;;;;5050368;28;20036;-81
2021/12/01 11:16:47;;;;;;;9.57;7.28;;;410.00;2022.40;;;;;;5069654;28;20035;-81
2021/12/01 11:19:13;;;;;;;9.50;7.03;;;409.90;2022.40;;;;;;5052974;28;20103;-81
2021/12/01 11:21:40;;;;;;;22.58;10.30;;;410.00;2022.40;;;;;;5052277;28;20078;-79
2021/12/01 11:24:08;;;;;;;11.35;5.28;;;410.30;2022.40;;;;;;5053314;28;20033;-77
2021/12/01 11:26:35;;;;;;;9.85;5.43;;;410.30;2022.40;;;;;;5050663;28;20021;-75
2021/12/01 11:29:22;;;;;;;12.38;6.25;;;410.40;1996.80;;;;;;5052509;28;20441;-76
2021/12/01 11:31:48;;;;;;;9.73;6.30;;;435.40;1971.20;;;;;;5045728;28;20075;-75
2021/12/01 11:34:18;;;;;;;10.43;7.07;;;435.70;1971.20;;;;;;5051547;28;20016;-76
2021/12/01 11:36:47;;;;;;;14.07;8.95;;;436.00;1894.40;;;;;;5069269;28;20032;-76
2021/12/01 11:39:22;;;;;;;19.77;8.98;;;461.10;1894.40;;;;;;5070475;28;20017;-75
2021/12/01 11:41:49;;;;;;;10.80;8.15;;;461.00;1868.80;;;;;;5051520;28;20029;-75
2021/12/01 11:44:20;;;;;;;13.10;7.13;;;460.80;1920.00;;;;;;5064416;28;20349;-75
2021/12/01 11:46:49;;;;;;;9.95;5.63;;;461.60;1843.20;;;;;;5056655;28;20032;-75
2021/12/01 11:49:17;;;;;;;12.98;7.63;;;461.40;1792.00;;;;;;5074203;28;20021;-75
2021/12/01 11:51:46;;;;;;;14.63;7.60;;;461.60;1817.60;;;;;;5056112;28;20063;-76
2021/12/01 11:54:20;;;;;;;14.00;8.27;;;461.70;1817.60;;;;;;5053616;28;20055;-75
2021/12/01 11:56:55;;;;;;;13.07;8.02;;;486.50;1792.00;;;;;;5053740;28;20091;-75
2021/12/01 11:59:57;;;;;;;14.18;8.63;;;487.10;1740.80;;;;;;5073500;28;20495;-74
2021/12/01 12:02:44;;;;;;;19.70;11.00;;;512.00;1689.60;;;;;;4974456;28;20031;-74
2021/12/01 12:05:15;;;;;;;13.02;7.63;;;486.90;1689.60;;;;;;4984569;28;20039;-74
2021/12/01 12:07:44;;;;;;;19.02;9.18;;;512.00;1612.80;;;;;;4985374;28;20030;-73
2021/12/01 12:10:19;;;;;;;15.60;9.25;;;487.10;1638.40;;;;;;4966218;28;20034;-73
2021/12/01 12:13:00;;;;;;;11.85;6.50;;;512.20;1587.20;;;;;;4984972;28;20030;-74
2021/12/01 12:15:48;;;;;;;14.15;7.65;;;487.30;1587.20;;;;;;4987568;28;20030;-74
2021/12/01 12:18:34;;;;;;;13.82;6.65;;;461.40;1664.00;;;;;;4983192;28;20069;-74
2021/12/01 12:21:43;;;;;;;9.63;6.57;;;460.80;1740.80;;;;;;4967974;28;20030;-75
2021/12/01 12:24:17;;;;;;;19.92;9.88;;;436.10;1740.80;;;;;;4984643;28;20128;-74
2021/12/01 12:26:57;;;;;;;35.97;17.83;;;435.40;1766.40;;;;;;4970124;28;20026;-74
2021/12/01 12:29:30;;;;;;;19.73;11.15;;;410.20;1843.20;;;;;;4989865;28;20401;-74